PWSweather.com
Personal Weather Stations
Station Observations
KFLPOINC2
Poinciana Kissimmee, Poinciana, FL 34758

Poinciana KissimmeePoinciana, FL 34758

Lat: 28.161417, Lon: -81.477557

Elevation: 79

Station Type: Ambient Weather WS 2080

High Low Average
Temperature 91.2°F32.9°F 72.0°F22.2°F 80.3°F26.8°F
Dew Point 75.3°F24.1°F 63.5°F17.5°F 70.9°F21.6°F
Winds 11.4 mph SE18.3 mph SE Calm Calm 2.5 mph 4.0 mph
Wind Gusts 16.8 mph27.0 mph -- 5.8 mph9.3 mph
Humidity 99% 41% 76%
Pressure 29.92 in1013.20 in 29.92 in1013.20 in -
Precipitation 0.03 in0.80 in - -
Hour Temp Dew Point Humidity Winds Wind Gusts Pressure Precip Precip Rate Daily Precip Total
12:00 AM 73.9°F23.3°C 72.8°F22.7°C 96% Calm Calm -- 29.92 in1013.2 mb 0.01 in0.3 mm 0.00 in0.0 mm 0.01 in0.3 mm
12:05 AM 73.9°F23.3°C 72.8°F22.7°C 96% Calm Calm -- 29.92 in1013.2 mb 0.01 in0.3 mm 0.00 in0.0 mm 0.01 in0.3 mm
12:10 AM 73.9°F23.3°C 72.8°F22.7°C 96% Calm Calm -- 29.92 in1013.2 mb 0.01 in0.3 mm 0.00 in0.0 mm 0.01 in0.3 mm
12:15 AM 73.8°F23.2°C 72.6°F22.6°C 96% Calm Calm -- 29.92 in1013.2 mb 0.00 in0.0 mm 0.00 in0.0 mm 0.01 in0.3 mm
12:20 AM 73.8°F23.2°C 72.6°F22.6°C 96% Calm Calm 0.7 mph1.1 kmh 29.92 in1013.2 mb 0.00 in0.0 mm 0.00 in0.0 mm 0.01 in0.3 mm
12:25 AM 73.8°F23.2°C 72.6°F22.6°C 96% Calm Calm 0.7 mph1.1 kmh 29.92 in1013.2 mb 0.00 in0.0 mm 0.00 in0.0 mm 0.01 in0.3 mm
12:30 AM 73.9°F23.3°C 72.8°F22.7°C 96% Calm Calm 0.7 mph1.1 kmh 29.92 in1013.2 mb 0.00 in0.0 mm 0.00 in0.0 mm 0.01 in0.3 mm
12:35 AM 73.9°F23.3°C 72.8°F22.7°C 96% 3.8 mph SE6.1 kmh SE 4.5 mph7.2 kmh 29.92 in1013.2 mb 0.00 in0.0 mm 0.00 in0.0 mm 0.01 in0.3 mm
12:40 AM 73.9°F23.3°C 72.8°F22.7°C 96% Calm Calm 4.5 mph7.2 kmh 29.92 in1013.2 mb 0.00 in0.0 mm 0.00 in0.0 mm 0.01 in0.3 mm
12:45 AM 73.8°F23.2°C 72.6°F22.6°C 96% Calm Calm 4.5 mph7.2 kmh 29.92 in1013.2 mb 0.00 in0.0 mm 0.00 in0.0 mm 0.01 in0.3 mm
12:50 AM 73.9°F23.3°C 72.8°F22.7°C 96% Calm Calm 3.8 mph6.1 kmh 29.92 in1013.2 mb 0.00 in0.0 mm 0.00 in0.0 mm 0.01 in0.3 mm
12:55 AM 73.8°F23.2°C 72.6°F22.6°C 96% Calm Calm -- 29.92 in1013.2 mb 0.00 in0.0 mm 0.00 in0.0 mm 0.01 in0.3 mm
01:00 AM 73.8°F23.2°C 72.6°F22.6°C 96% Calm Calm -- 29.92 in1013.2 mb 0.00 in0.0 mm 0.00 in0.0 mm 0.01 in0.3 mm
01:05 AM 73.8°F23.2°C 72.6°F22.6°C 96% Calm Calm -- 29.92 in1013.2 mb 0.00 in0.0 mm 0.00 in0.0 mm 0.01 in0.3 mm
01:10 AM 73.8°F23.2°C 72.6°F22.6°C 96% Calm Calm -- 29.92 in1013.2 mb 0.00 in0.0 mm 0.00 in0.0 mm 0.01 in0.3 mm
01:15 AM 73.8°F23.2°C 72.6°F22.6°C 96% Calm Calm -- 29.92 in1013.2 mb 0.00 in0.0 mm 0.00 in0.0 mm 0.01 in0.3 mm
01:20 AM 73.6°F23.1°C 72.4°F22.4°C 96% Calm Calm -- 29.92 in1013.2 mb 0.00 in0.0 mm 0.00 in0.0 mm 0.01 in0.3 mm
01:25 AM 73.6°F23.1°C 72.4°F22.4°C 96% Calm Calm -- 29.92 in1013.2 mb 0.00 in0.0 mm 0.00 in0.0 mm 0.01 in0.3 mm
01:30 AM 73.4°F23.0°C 72.2°F22.3°C 96% Calm Calm -- 29.92 in1013.2 mb 0.00 in0.0 mm 0.00 in0.0 mm 0.01 in0.3 mm
01:35 AM 73.4°F23.0°C 72.2°F22.3°C 96% Calm Calm -- 29.92 in1013.2 mb 0.00 in0.0 mm 0.00 in0.0 mm 0.01 in0.3 mm
01:40 AM 73.2°F22.9°C 72.1°F22.3°C 96% Calm Calm 0.7 mph1.1 kmh 29.92 in1013.2 mb 0.00 in0.0 mm 0.00 in0.0 mm 0.01 in0.3 mm
01:45 AM 73.2°F22.9°C 72.1°F22.3°C 96% Calm Calm 0.7 mph1.1 kmh 29.92 in1013.2 mb 0.00 in0.0 mm 0.00 in0.0 mm 0.01 in0.3 mm
01:50 AM 73.0°F22.8°C 71.9°F22.2°C 96% 0.7 mph SE1.1 kmh SE 2.2 mph3.5 kmh 29.92 in1013.2 mb 0.00 in0.0 mm 0.00 in0.0 mm 0.01 in0.3 mm
01:55 AM 73.0°F22.8°C 71.9°F22.2°C 96% Calm Calm 3.8 mph6.1 kmh 29.92 in1013.2 mb 0.00 in0.0 mm 0.00 in0.0 mm 0.01 in0.3 mm
02:00 AM 73.0°F22.8°C 71.9°F22.2°C 96% Calm Calm 3.8 mph6.1 kmh 29.92 in1013.2 mb 0.00 in0.0 mm 0.00 in0.0 mm 0.01 in0.3 mm
02:05 AM 73.0°F22.8°C 71.9°F22.2°C 96% Calm Calm 0.7 mph1.1 kmh 29.92 in1013.2 mb 0.00 in0.0 mm 0.00 in0.0 mm 0.01 in0.3 mm
02:10 AM 72.7°F22.6°C 71.5°F21.9°C 96% Calm Calm 0.7 mph1.1 kmh 29.92 in1013.2 mb 0.00 in0.0 mm 0.00 in0.0 mm 0.01 in0.3 mm
02:15 AM 72.7°F22.6°C 71.5°F21.9°C 96% Calm Calm 5.4 mph8.7 kmh 29.92 in1013.2 mb 0.00 in0.0 mm 0.00 in0.0 mm 0.01 in0.3 mm
02:20 AM 72.7°F22.6°C 71.5°F21.9°C 96% 2.2 mph SE3.5 kmh SE 5.4 mph8.7 kmh 29.92 in1013.2 mb 0.00 in0.0 mm 0.00 in0.0 mm 0.01 in0.3 mm
02:25 AM 72.7°F22.6°C 71.5°F21.9°C 96% 2.2 mph SE3.5 kmh SE 5.4 mph8.7 kmh 29.92 in1013.2 mb 0.00 in0.0 mm 0.00 in0.0 mm 0.01 in0.3 mm
02:30 AM 72.5°F22.5°C 71.3°F21.8°C 96% Calm Calm 5.4 mph8.7 kmh 29.92 in1013.2 mb 0.00 in0.0 mm 0.00 in0.0 mm 0.01 in0.3 mm
02:35 AM 72.5°F22.5°C 71.3°F21.8°C 96% 2.2 mph SE3.5 kmh SE 6.0 mph9.7 kmh 29.92 in1013.2 mb 0.00 in0.0 mm 0.00 in0.0 mm 0.01 in0.3 mm
02:40 AM 72.3°F22.4°C 71.2°F21.8°C 96% Calm Calm 6.0 mph9.7 kmh 29.92 in1013.2 mb 0.00 in0.0 mm 0.00 in0.0 mm 0.01 in0.3 mm
02:45 AM 72.3°F22.4°C 71.2°F21.8°C 96% Calm Calm 3.1 mph5.0 kmh 29.92 in1013.2 mb 0.00 in0.0 mm 0.00 in0.0 mm 0.01 in0.3 mm
02:50 AM 72.3°F22.4°C 71.2°F21.8°C 96% Calm Calm 3.8 mph6.1 kmh 29.92 in1013.2 mb 0.00 in0.0 mm 0.00 in0.0 mm 0.01 in0.3 mm
02:55 AM 72.1°F22.3°C 71.0°F21.7°C 96% Calm Calm 3.8 mph6.1 kmh 29.92 in1013.2 mb 0.00 in0.0 mm 0.00 in0.0 mm 0.01 in0.3 mm
03:00 AM 72.1°F22.3°C 71.0°F21.7°C 96% Calm Calm 3.1 mph5.0 kmh 29.92 in1013.2 mb 0.00 in0.0 mm 0.00 in0.0 mm 0.01 in0.3 mm
03:05 AM 72.1°F22.3°C 71.0°F21.7°C 96% Calm Calm 2.2 mph3.5 kmh 29.92 in1013.2 mb 0.00 in0.0 mm 0.00 in0.0 mm 0.01 in0.3 mm
03:10 AM 72.1°F22.3°C 71.0°F21.7°C 96% Calm Calm 0.7 mph1.1 kmh 29.92 in1013.2 mb 0.00 in0.0 mm 0.00 in0.0 mm 0.01 in0.3 mm
03:15 AM 72.3°F22.4°C 71.2°F21.8°C 96% Calm Calm 0.7 mph1.1 kmh 29.92 in1013.2 mb 0.00 in0.0 mm 0.00 in0.0 mm 0.01 in0.3 mm
03:20 AM 72.3°F22.4°C 71.5°F21.9°C 97% Calm Calm 0.7 mph1.1 kmh 29.92 in1013.2 mb 0.00 in0.0 mm 0.00 in0.0 mm 0.01 in0.3 mm
03:25 AM 72.3°F22.4°C 71.5°F21.9°C 97% Calm Calm 0.7 mph1.1 kmh 29.92 in1013.2 mb 0.00 in0.0 mm 0.00 in0.0 mm 0.01 in0.3 mm
03:30 AM 72.3°F22.4°C 71.5°F21.9°C 97% Calm Calm 0.7 mph1.1 kmh 29.92 in1013.2 mb 0.00 in0.0 mm 0.00 in0.0 mm 0.01 in0.3 mm
03:35 AM 72.3°F22.4°C 71.5°F21.9°C 97% Calm Calm 3.8 mph6.1 kmh 29.92 in1013.2 mb 0.00 in0.0 mm 0.00 in0.0 mm 0.01 in0.3 mm
03:40 AM 72.3°F22.4°C 71.5°F21.9°C 97% Calm Calm 3.8 mph6.1 kmh 29.92 in1013.2 mb 0.00 in0.0 mm 0.00 in0.0 mm 0.01 in0.3 mm
03:45 AM 72.3°F22.4°C 71.5°F21.9°C 97% Calm Calm 0.7 mph1.1 kmh 29.92 in1013.2 mb 0.00 in0.0 mm 0.00 in0.0 mm 0.01 in0.3 mm
03:50 AM 72.3°F22.4°C 71.5°F21.9°C 97% Calm Calm 0.7 mph1.1 kmh 29.92 in1013.2 mb 0.00 in0.0 mm 0.00 in0.0 mm 0.01 in0.3 mm
03:55 AM 72.3°F22.4°C 71.5°F21.9°C 97% Calm Calm 0.7 mph1.1 kmh 29.92 in1013.2 mb 0.00 in0.0 mm 0.00 in0.0 mm 0.01 in0.3 mm
04:00 AM 72.3°F22.4°C 71.5°F21.9°C 97% Calm Calm 0.7 mph1.1 kmh 29.92 in1013.2 mb 0.00 in0.0 mm 0.00 in0.0 mm 0.01 in0.3 mm
04:05 AM 72.3°F22.4°C 71.5°F21.9°C 97% Calm Calm 0.7 mph1.1 kmh 29.92 in1013.2 mb 0.00 in0.0 mm 0.00 in0.0 mm 0.01 in0.3 mm
04:10 AM 72.3°F22.4°C 71.5°F21.9°C 97% 0.7 mph SE1.1 kmh SE 3.1 mph5.0 kmh 29.92 in1013.2 mb 0.00 in0.0 mm 0.00 in0.0 mm 0.01 in0.3 mm
04:15 AM 72.3°F22.4°C 71.5°F21.9°C 97% 1.6 mph SE2.6 kmh SE 3.8 mph6.1 kmh 29.92 in1013.2 mb 0.00 in0.0 mm 0.00 in0.0 mm 0.01 in0.3 mm
04:20 AM 72.1°F22.3°C 71.3°F21.8°C 97% 2.2 mph SE3.5 kmh SE 4.5 mph7.2 kmh 29.92 in1013.2 mb 0.00 in0.0 mm 0.00 in0.0 mm 0.01 in0.3 mm
04:25 AM 72.1°F22.3°C 71.3°F21.8°C 97% Calm Calm 4.5 mph7.2 kmh 29.92 in1013.2 mb 0.00 in0.0 mm 0.00 in0.0 mm 0.01 in0.3 mm
04:30 AM 72.1°F22.3°C 71.3°F21.8°C 97% Calm Calm 3.8 mph6.1 kmh 29.92 in1013.2 mb 0.00 in0.0 mm 0.00 in0.0 mm 0.01 in0.3 mm
04:35 AM 72.1°F22.3°C 71.3°F21.8°C 97% Calm Calm 2.2 mph3.5 kmh 29.92 in1013.2 mb 0.00 in0.0 mm 0.00 in0.0 mm 0.01 in0.3 mm
04:40 AM 72.1°F22.3°C 71.3°F21.8°C 97% Calm Calm -- 29.92 in1013.2 mb 0.00 in0.0 mm 0.00 in0.0 mm 0.01 in0.3 mm
04:45 AM 72.1°F22.3°C 71.3°F21.8°C 97% Calm Calm -- 29.92 in1013.2 mb 0.00 in0.0 mm 0.00 in0.0 mm 0.01 in0.3 mm
04:50 AM 72.1°F22.3°C 71.3°F21.8°C 97% Calm Calm 3.1 mph5.0 kmh 29.92 in1013.2 mb 0.00 in0.0 mm 0.00 in0.0 mm 0.01 in0.3 mm
04:55 AM 72.1°F22.3°C 71.3°F21.8°C 97% Calm Calm 3.1 mph5.0 kmh 29.92 in1013.2 mb 0.00 in0.0 mm 0.00 in0.0 mm 0.01 in0.3 mm
05:00 AM 72.1°F22.3°C 71.3°F21.8°C 97% Calm Calm 3.1 mph5.0 kmh 29.92 in1013.2 mb 0.00 in0.0 mm 0.00 in0.0 mm 0.01 in0.3 mm
05:05 AM 72.0°F22.2°C 71.1°F21.7°C 97% Calm Calm 3.1 mph5.0 kmh 29.92 in1013.2 mb 0.00 in0.0 mm 0.00 in0.0 mm 0.01 in0.3 mm
05:10 AM 72.1°F22.3°C 71.3°F21.8°C 97% Calm Calm 0.7 mph1.1 kmh 29.92 in1013.2 mb 0.00 in0.0 mm 0.00 in0.0 mm 0.01 in0.3 mm
05:15 AM 72.1°F22.3°C 71.3°F21.8°C 97% Calm Calm 0.7 mph1.1 kmh 29.92 in1013.2 mb 0.00 in0.0 mm 0.00 in0.0 mm 0.01 in0.3 mm
05:20 AM 72.1°F22.3°C 71.3°F21.8°C 97% Calm Calm 0.7 mph1.1 kmh 29.92 in1013.2 mb 0.00 in0.0 mm 0.00 in0.0 mm 0.01 in0.3 mm
05:25 AM 72.1°F22.3°C 71.3°F21.8°C 97% Calm Calm 0.7 mph1.1 kmh 29.92 in1013.2 mb 0.00 in0.0 mm 0.00 in0.0 mm 0.01 in0.3 mm
05:30 AM 72.1°F22.3°C 71.3°F21.8°C 97% Calm Calm -- 29.92 in1013.2 mb 0.00 in0.0 mm 0.00 in0.0 mm 0.01 in0.3 mm
05:35 AM 72.0°F22.2°C 71.1°F21.7°C 97% Calm Calm -- 29.92 in1013.2 mb 0.00 in0.0 mm 0.00 in0.0 mm 0.01 in0.3 mm
05:40 AM 72.1°F22.3°C 71.3°F21.8°C 97% Calm Calm -- 29.92 in1013.2 mb 0.00 in0.0 mm 0.00 in0.0 mm 0.01 in0.3 mm
05:45 AM 72.0°F22.2°C 71.1°F21.7°C 97% Calm Calm -- 29.92 in1013.2 mb 0.00 in0.0 mm 0.00 in0.0 mm 0.01 in0.3 mm
05:50 AM 72.1°F22.3°C 71.3°F21.8°C 97% Calm Calm -- 29.92 in1013.2 mb 0.00 in0.0 mm 0.00 in0.0 mm 0.01 in0.3 mm
05:55 AM 72.1°F22.3°C 71.3°F21.8°C 97% Calm Calm 0.7 mph1.1 kmh 29.92 in1013.2 mb 0.00 in0.0 mm 0.00 in0.0 mm 0.01 in0.3 mm
06:00 AM 72.1°F22.3°C 71.3°F21.8°C 97% Calm Calm 0.7 mph1.1 kmh 29.92 in1013.2 mb 0.00 in0.0 mm 0.00 in0.0 mm 0.01 in0.3 mm
06:05 AM 72.1°F22.3°C 71.3°F21.8°C 97% Calm Calm -- 29.92 in1013.2 mb 0.00 in0.0 mm 0.00 in0.0 mm 0.01 in0.3 mm
06:10 AM 72.1°F22.3°C 71.3°F21.8°C 97% Calm Calm -- 29.92 in1013.2 mb 0.00 in0.0 mm 0.00 in0.0 mm 0.01 in0.3 mm
06:15 AM 72.1°F22.3°C 71.3°F21.8°C 97% Calm Calm -- 29.92 in1013.2 mb 0.00 in0.0 mm 0.00 in0.0 mm 0.01 in0.3 mm
06:20 AM 72.1°F22.3°C 71.3°F21.8°C 97% 0.7 mph SE1.1 kmh SE 5.4 mph8.7 kmh 29.92 in1013.2 mb 0.00 in0.0 mm 0.00 in0.0 mm 0.01 in0.3 mm
06:25 AM 72.0°F22.2°C 71.1°F21.7°C 97% Calm Calm 5.4 mph8.7 kmh 29.92 in1013.2 mb 0.00 in0.0 mm 0.00 in0.0 mm 0.01 in0.3 mm
06:30 AM 72.0°F22.2°C 71.1°F21.7°C 97% Calm Calm 3.1 mph5.0 kmh 29.92 in1013.2 mb 0.00 in0.0 mm 0.00 in0.0 mm 0.01 in0.3 mm
06:35 AM 72.0°F22.2°C 71.1°F21.7°C 97% Calm Calm 3.1 mph5.0 kmh 29.92 in1013.2 mb 0.00 in0.0 mm 0.00 in0.0 mm 0.01 in0.3 mm
06:40 AM 72.0°F22.2°C 71.1°F21.7°C 97% 0.7 mph SE1.1 kmh SE 4.5 mph7.2 kmh 29.92 in1013.2 mb 0.00 in0.0 mm 0.00 in0.0 mm 0.01 in0.3 mm
06:45 AM 72.0°F22.2°C 71.1°F21.7°C 97% 0.7 mph SE1.1 kmh SE 4.5 mph7.2 kmh 29.92 in1013.2 mb 0.00 in0.0 mm 0.00 in0.0 mm 0.01 in0.3 mm
06:50 AM 72.0°F22.2°C 71.1°F21.7°C 97% Calm Calm 3.1 mph5.0 kmh 29.92 in1013.2 mb 0.00 in0.0 mm 0.00 in0.0 mm 0.01 in0.3 mm
06:55 AM 72.1°F22.3°C 71.3°F21.8°C 97% 0.7 mph SE1.1 kmh SE 3.1 mph5.0 kmh 29.92 in1013.2 mb 0.00 in0.0 mm 0.00 in0.0 mm 0.01 in0.3 mm
07:00 AM 72.1°F22.3°C 71.3°F21.8°C 97% Calm Calm 3.1 mph5.0 kmh 29.92 in1013.2 mb 0.00 in0.0 mm 0.00 in0.0 mm 0.01 in0.3 mm
07:05 AM 72.1°F22.3°C 71.3°F21.8°C 97% Calm Calm 3.1 mph5.0 kmh 29.92 in1013.2 mb 0.00 in0.0 mm 0.00 in0.0 mm 0.01 in0.3 mm
07:10 AM 72.3°F22.4°C 71.5°F21.9°C 97% Calm Calm 3.1 mph5.0 kmh 29.92 in1013.2 mb 0.00 in0.0 mm 0.00 in0.0 mm 0.01 in0.3 mm
07:15 AM 72.5°F22.5°C 71.6°F22.0°C 97% 0.7 mph SE1.1 kmh SE 4.5 mph7.2 kmh 29.92 in1013.2 mb 0.00 in0.0 mm 0.00 in0.0 mm 0.01 in0.3 mm
07:20 AM 72.7°F22.6°C 71.8°F22.1°C 97% Calm Calm 4.5 mph7.2 kmh 29.92 in1013.2 mb 0.00 in0.0 mm 0.00 in0.0 mm 0.01 in0.3 mm
07:25 AM 73.0°F22.8°C 72.2°F22.3°C 97% Calm Calm 1.6 mph2.6 kmh 29.92 in1013.2 mb 0.00 in0.0 mm 0.00 in0.0 mm 0.01 in0.3 mm
07:30 AM 73.0°F22.8°C 72.2°F22.3°C 97% Calm Calm -- 29.92 in1013.2 mb 0.00 in0.0 mm 0.00 in0.0 mm 0.01 in0.3 mm
07:35 AM 73.4°F23.0°C 73.2°F22.9°C 99% Calm Calm -- 29.92 in1013.2 mb 0.00 in0.0 mm 0.00 in0.0 mm 0.01 in0.3 mm
07:40 AM 73.6°F23.1°C 73.3°F22.9°C 99% Calm Calm 1.6 mph2.6 kmh 29.92 in1013.2 mb 0.00 in0.0 mm 0.00 in0.0 mm 0.01 in0.3 mm
07:45 AM 73.9°F23.3°C 73.7°F23.2°C 99% Calm Calm 1.6 mph2.6 kmh 29.92 in1013.2 mb 0.00 in0.0 mm 0.00 in0.0 mm 0.01 in0.3 mm
07:50 AM 74.1°F23.4°C 73.9°F23.3°C 99% Calm Calm 0.7 mph1.1 kmh 29.92 in1013.2 mb 0.00 in0.0 mm 0.00 in0.0 mm 0.01 in0.3 mm
07:55 AM 74.3°F23.5°C 74.1°F23.4°C 99% Calm Calm 0.7 mph1.1 kmh 29.92 in1013.2 mb 0.00 in0.0 mm 0.00 in0.0 mm 0.01 in0.3 mm
08:00 AM 74.5°F23.6°C 74.2°F23.4°C 99% 0.7 mph SE1.1 kmh SE 4.5 mph7.2 kmh 29.92 in1013.2 mb 0.00 in0.0 mm 0.00 in0.0 mm 0.01 in0.3 mm
08:05 AM 74.7°F23.7°C 74.4°F23.6°C 99% 3.1 mph SE5.0 kmh SE 5.4 mph8.7 kmh 29.92 in1013.2 mb 0.00 in0.0 mm 0.00 in0.0 mm 0.01 in0.3 mm
08:10 AM 74.8°F23.8°C 74.3°F23.5°C 98% 2.2 mph SE3.5 kmh SE 6.0 mph9.7 kmh 29.92 in1013.2 mb 0.00 in0.0 mm 0.00 in0.0 mm 0.01 in0.3 mm
08:15 AM 75.6°F24.2°C 74.7°F23.7°C 97% 0.7 mph SE1.1 kmh SE 6.0 mph9.7 kmh 29.92 in1013.2 mb 0.00 in0.0 mm 0.00 in0.0 mm 0.01 in0.3 mm
08:20 AM 75.9°F24.4°C 74.4°F23.6°C 95% 1.6 mph SE2.6 kmh SE 4.5 mph7.2 kmh 29.92 in1013.2 mb 0.00 in0.0 mm 0.00 in0.0 mm 0.01 in0.3 mm
08:25 AM 76.5°F24.7°C 74.7°F23.7°C 94% 1.6 mph SE2.6 kmh SE 4.5 mph7.2 kmh 29.92 in1013.2 mb 0.00 in0.0 mm 0.00 in0.0 mm 0.01 in0.3 mm
08:30 AM 76.8°F24.9°C 74.4°F23.6°C 92% 2.2 mph SE3.5 kmh SE 4.5 mph7.2 kmh 29.92 in1013.2 mb 0.00 in0.0 mm 0.00 in0.0 mm 0.01 in0.3 mm
08:35 AM 77.4°F25.2°C 74.3°F23.5°C 90% 2.2 mph SE3.5 kmh SE 4.5 mph7.2 kmh 29.92 in1013.2 mb 0.00 in0.0 mm 0.00 in0.0 mm 0.01 in0.3 mm
08:40 AM 77.4°F25.2°C 73.6°F23.1°C 88% 2.2 mph SE3.5 kmh SE 5.4 mph8.7 kmh 29.92 in1013.2 mb 0.00 in0.0 mm 0.00 in0.0 mm 0.01 in0.3 mm
08:45 AM 77.7°F25.4°C 73.2°F22.9°C 86% 3.1 mph SE5.0 kmh SE 6.9 mph11.1 kmh 29.92 in1013.2 mb 0.00 in0.0 mm 0.00 in0.0 mm 0.01 in0.3 mm
08:50 AM 78.3°F25.7°C 73.4°F23.0°C 85% 2.2 mph SE3.5 kmh SE 6.9 mph11.1 kmh 29.92 in1013.2 mb 0.00 in0.0 mm 0.00 in0.0 mm 0.01 in0.3 mm
08:55 AM 78.6°F25.9°C 73.8°F23.2°C 85% 3.1 mph SE5.0 kmh SE 5.4 mph8.7 kmh 29.92 in1013.2 mb 0.00 in0.0 mm 0.00 in0.0 mm 0.01 in0.3 mm
09:00 AM 78.8°F26.0°C 73.3°F22.9°C 83% 4.5 mph SE7.2 kmh SE 5.4 mph8.7 kmh 29.92 in1013.2 mb 0.00 in0.0 mm 0.00 in0.0 mm 0.01 in0.3 mm
09:05 AM 79.0°F26.1°C 73.4°F23.0°C 83% 3.8 mph SE6.1 kmh SE 5.4 mph8.7 kmh 29.92 in1013.2 mb 0.00 in0.0 mm 0.00 in0.0 mm 0.01 in0.3 mm
09:10 AM 79.3°F26.3°C 73.8°F23.2°C 83% 3.1 mph SE5.0 kmh SE 5.4 mph8.7 kmh 29.92 in1013.2 mb 0.00 in0.0 mm 0.00 in0.0 mm 0.01 in0.3 mm
09:15 AM 79.9°F26.6°C 74.3°F23.5°C 83% 5.4 mph SE8.7 kmh SE 7.6 mph12.2 kmh 29.92 in1013.2 mb 0.00 in0.0 mm 0.00 in0.0 mm 0.01 in0.3 mm
09:20 AM 80.1°F26.7°C 73.8°F23.2°C 81% 5.4 mph SE8.7 kmh SE 8.3 mph13.4 kmh 29.92 in1013.2 mb 0.00 in0.0 mm 0.00 in0.0 mm 0.01 in0.3 mm
09:25 AM 80.1°F26.7°C 73.8°F23.2°C 81% 3.1 mph SE5.0 kmh SE 8.3 mph13.4 kmh 29.92 in1013.2 mb 0.00 in0.0 mm 0.00 in0.0 mm 0.01 in0.3 mm
09:30 AM 80.2°F26.8°C 73.6°F23.1°C 80% 3.8 mph SE6.1 kmh SE 9.2 mph14.8 kmh 29.92 in1013.2 mb 0.00 in0.0 mm 0.00 in0.0 mm 0.01 in0.3 mm
09:35 AM 80.4°F26.9°C 74.1°F23.4°C 81% 4.5 mph SE7.2 kmh SE 9.2 mph14.8 kmh 29.92 in1013.2 mb 0.00 in0.0 mm 0.00 in0.0 mm 0.01 in0.3 mm
09:40 AM 81.0°F27.2°C 74.3°F23.5°C 80% 2.2 mph SE3.5 kmh SE 7.6 mph12.2 kmh 29.92 in1013.2 mb 0.00 in0.0 mm 0.00 in0.0 mm 0.01 in0.3 mm
09:45 AM 81.3°F27.4°C 74.2°F23.4°C 79% 6.9 mph SE11.1 kmh SE 9.2 mph14.8 kmh 29.92 in1013.2 mb 0.00 in0.0 mm 0.00 in0.0 mm 0.01 in0.3 mm
09:50 AM 81.0°F27.2°C 73.5°F23.1°C 78% 4.5 mph SE7.2 kmh SE 9.8 mph15.8 kmh 29.92 in1013.2 mb 0.00 in0.0 mm 0.00 in0.0 mm 0.01 in0.3 mm
09:55 AM 81.0°F27.2°C 73.9°F23.3°C 79% 3.8 mph SE6.1 kmh SE 9.8 mph15.8 kmh 29.92 in1013.2 mb 0.00 in0.0 mm 0.00 in0.0 mm 0.01 in0.3 mm
10:00 AM 81.5°F27.5°C 74.4°F23.6°C 79% 3.8 mph SE6.1 kmh SE 9.8 mph15.8 kmh 29.92 in1013.2 mb 0.00 in0.0 mm 0.00 in0.0 mm 0.01 in0.3 mm
10:05 AM 81.3°F27.4°C 74.2°F23.4°C 79% 4.5 mph SE7.2 kmh SE 9.2 mph14.8 kmh 29.92 in1013.2 mb 0.00 in0.0 mm 0.00 in0.0 mm 0.01 in0.3 mm
10:10 AM 80.8°F27.1°C 73.7°F23.2°C 79% 6.0 mph SE9.7 kmh SE 9.8 mph15.8 kmh 29.92 in1013.2 mb 0.00 in0.0 mm 0.00 in0.0 mm 0.01 in0.3 mm
10:15 AM 81.5°F27.5°C 74.8°F23.8°C 80% 5.4 mph SE8.7 kmh SE 9.8 mph15.8 kmh 29.92 in1013.2 mb 0.00 in0.0 mm 0.00 in0.0 mm 0.01 in0.3 mm
10:20 AM 82.4°F28.0°C 75.3°F24.1°C 79% 6.9 mph SE11.1 kmh SE 9.8 mph15.8 kmh 29.92 in1013.2 mb 0.00 in0.0 mm 0.00 in0.0 mm 0.01 in0.3 mm
10:25 AM 82.8°F28.2°C 74.5°F23.6°C 76% 6.0 mph SE9.7 kmh SE 9.8 mph15.8 kmh 29.92 in1013.2 mb 0.00 in0.0 mm 0.00 in0.0 mm 0.01 in0.3 mm
10:30 AM 82.4°F28.0°C 74.1°F23.4°C 76% 3.1 mph SE5.0 kmh SE 9.8 mph15.8 kmh 29.92 in1013.2 mb 0.00 in0.0 mm 0.00 in0.0 mm 0.01 in0.3 mm
10:35 AM 82.2°F27.9°C 74.0°F23.3°C 76% 5.4 mph SE8.7 kmh SE 10.7 mph17.2 kmh 29.92 in1013.2 mb 0.00 in0.0 mm 0.00 in0.0 mm 0.01 in0.3 mm
10:40 AM 82.4°F28.0°C 74.1°F23.4°C 76% 4.5 mph SE7.2 kmh SE 12.1 mph19.5 kmh 29.92 in1013.2 mb 0.00 in0.0 mm 0.00 in0.0 mm 0.01 in0.3 mm
10:45 AM 83.3°F28.5°C 74.6°F23.7°C 75% 6.0 mph SE9.7 kmh SE 12.1 mph19.5 kmh 29.92 in1013.2 mb 0.00 in0.0 mm 0.00 in0.0 mm 0.01 in0.3 mm
10:50 AM 83.5°F28.6°C 74.0°F23.3°C 73% 4.5 mph SE7.2 kmh SE 9.8 mph15.8 kmh 29.92 in1013.2 mb 0.00 in0.0 mm 0.00 in0.0 mm 0.01 in0.3 mm
10:55 AM 84.2°F29.0°C 74.7°F23.7°C 73% 4.5 mph SE7.2 kmh SE 11.4 mph18.3 kmh 29.92 in1013.2 mb 0.00 in0.0 mm 0.00 in0.0 mm 0.01 in0.3 mm
11:00 AM 85.1°F29.5°C 74.7°F23.7°C 71% 3.8 mph SE6.1 kmh SE 11.4 mph18.3 kmh 29.92 in1013.2 mb 0.00 in0.0 mm 0.00 in0.0 mm 0.01 in0.3 mm
11:05 AM 84.6°F29.2°C 73.3°F22.9°C 69% 6.0 mph SE9.7 kmh SE 9.8 mph15.8 kmh 29.92 in1013.2 mb 0.00 in0.0 mm 0.00 in0.0 mm 0.01 in0.3 mm
11:10 AM 83.8°F28.8°C 73.1°F22.8°C 70% 3.8 mph SE6.1 kmh SE 9.8 mph15.8 kmh 29.92 in1013.2 mb 0.00 in0.0 mm 0.00 in0.0 mm 0.01 in0.3 mm
11:15 AM 84.7°F29.3°C 73.5°F23.1°C 69% 6.0 mph SE9.7 kmh SE 9.2 mph14.8 kmh 29.92 in1013.2 mb 0.00 in0.0 mm 0.00 in0.0 mm 0.01 in0.3 mm
11:20 AM 85.1°F29.5°C 72.5°F22.5°C 66% 5.4 mph SE8.7 kmh SE 9.2 mph14.8 kmh 29.92 in1013.2 mb 0.00 in0.0 mm 0.00 in0.0 mm 0.01 in0.3 mm
11:25 AM 85.6°F29.8°C 73.0°F22.8°C 66% 8.3 mph SE13.4 kmh SE 10.7 mph17.2 kmh 29.92 in1013.2 mb 0.00 in0.0 mm 0.00 in0.0 mm 0.01 in0.3 mm
11:30 AM 85.8°F29.9°C 72.8°F22.7°C 65% 5.4 mph SE8.7 kmh SE 10.7 mph17.2 kmh 29.92 in1013.2 mb 0.00 in0.0 mm 0.00 in0.0 mm 0.01 in0.3 mm
11:35 AM 86.0°F30.0°C 72.5°F22.5°C 64% 3.1 mph SE5.0 kmh SE 10.7 mph17.2 kmh 29.92 in1013.2 mb 0.00 in0.0 mm 0.00 in0.0 mm 0.01 in0.3 mm
11:40 AM 86.4°F30.2°C 72.3°F22.4°C 63% 6.9 mph SE11.1 kmh SE 10.7 mph17.2 kmh 29.92 in1013.2 mb 0.00 in0.0 mm 0.00 in0.0 mm 0.01 in0.3 mm
11:45 AM 85.8°F29.9°C 72.3°F22.4°C 64% 6.0 mph SE9.7 kmh SE 10.7 mph17.2 kmh 29.92 in1013.2 mb 0.00 in0.0 mm 0.00 in0.0 mm 0.01 in0.3 mm
11:50 AM 86.0°F30.0°C 72.0°F22.2°C 63% 6.0 mph SE9.7 kmh SE 11.4 mph18.3 kmh 29.92 in1013.2 mb 0.00 in0.0 mm 0.00 in0.0 mm 0.01 in0.3 mm
11:55 AM 86.4°F30.2°C 71.4°F21.9°C 61% 4.5 mph SE7.2 kmh SE 11.4 mph18.3 kmh 29.92 in1013.2 mb 0.00 in0.0 mm 0.00 in0.0 mm 0.01 in0.3 mm
12:00 PM 86.5°F30.3°C 71.6°F22.0°C 61% 6.9 mph SE11.1 kmh SE 10.7 mph17.2 kmh 29.92 in1013.2 mb 0.00 in0.0 mm 0.00 in0.0 mm 0.01 in0.3 mm
12:05 PM 86.0°F30.0°C 70.6°F21.4°C 60% 10.7 mph SE17.2 kmh SE 12.1 mph19.5 kmh 29.92 in1013.2 mb 0.00 in0.0 mm 0.00 in0.0 mm 0.01 in0.3 mm
12:10 PM 86.0°F30.0°C 71.0°F21.7°C 61% 5.4 mph SE8.7 kmh SE 12.1 mph19.5 kmh 29.92 in1013.2 mb 0.00 in0.0 mm 0.00 in0.0 mm 0.01 in0.3 mm
12:15 PM 86.7°F30.4°C 71.7°F22.1°C 61% 4.5 mph SE7.2 kmh SE 12.1 mph19.5 kmh 29.92 in1013.2 mb 0.00 in0.0 mm 0.00 in0.0 mm 0.01 in0.3 mm
12:20 PM 87.3°F30.7°C 71.7°F22.1°C 60% 6.0 mph SE9.7 kmh SE 10.7 mph17.2 kmh 29.92 in1013.2 mb 0.00 in0.0 mm 0.00 in0.0 mm 0.01 in0.3 mm
12:25 PM 87.1°F30.6°C 71.1°F21.7°C 59% 3.8 mph SE6.1 kmh SE 9.2 mph14.8 kmh 29.92 in1013.2 mb 0.00 in0.0 mm 0.00 in0.0 mm 0.01 in0.3 mm
12:30 PM 87.3°F30.7°C 70.2°F21.2°C 57% 4.5 mph SE7.2 kmh SE 9.8 mph15.8 kmh 29.92 in1013.2 mb 0.00 in0.0 mm 0.00 in0.0 mm 0.01 in0.3 mm
12:35 PM 87.8°F31.0°C 69.1°F20.6°C 54% 6.9 mph SE11.1 kmh SE 11.4 mph18.3 kmh 29.92 in1013.2 mb 0.00 in0.0 mm 0.00 in0.0 mm 0.01 in0.3 mm
12:40 PM 88.0°F31.1°C 69.9°F21.1°C 55% 2.2 mph SE3.5 kmh SE 11.4 mph18.3 kmh 29.92 in1013.2 mb 0.00 in0.0 mm 0.00 in0.0 mm 0.01 in0.3 mm
12:45 PM 88.0°F31.1°C 69.9°F21.1°C 55% 6.0 mph SE9.7 kmh SE 10.7 mph17.2 kmh 29.92 in1013.2 mb 0.00 in0.0 mm 0.00 in0.0 mm 0.01 in0.3 mm
12:50 PM 87.6°F30.9°C 70.0°F21.1°C 56% 4.5 mph SE7.2 kmh SE 10.7 mph17.2 kmh 29.92 in1013.2 mb 0.00 in0.0 mm 0.00 in0.0 mm 0.01 in0.3 mm
12:55 PM 88.0°F31.1°C 70.4°F21.3°C 56% 5.4 mph SE8.7 kmh SE 10.7 mph17.2 kmh 29.92 in1013.2 mb 0.00 in0.0 mm 0.00 in0.0 mm 0.01 in0.3 mm
01:00 PM 88.5°F31.4°C 69.8°F21.0°C 54% 6.0 mph SE9.7 kmh SE 11.4 mph18.3 kmh 29.92 in1013.2 mb 0.00 in0.0 mm 0.00 in0.0 mm 0.01 in0.3 mm
01:05 PM 88.2°F31.2°C 70.0°F21.1°C 55% 7.6 mph SE12.2 kmh SE 11.4 mph18.3 kmh 29.92 in1013.2 mb 0.00 in0.0 mm 0.00 in0.0 mm 0.01 in0.3 mm
01:10 PM 88.5°F31.4°C 69.3°F20.7°C 53% 6.0 mph SE9.7 kmh SE 11.4 mph18.3 kmh 29.92 in1013.2 mb 0.00 in0.0 mm 0.00 in0.0 mm 0.01 in0.3 mm
01:15 PM 89.1°F31.7°C 69.2°F20.7°C 52% 7.6 mph SE12.2 kmh SE 12.1 mph19.5 kmh 29.92 in1013.2 mb 0.00 in0.0 mm 0.00 in0.0 mm 0.01 in0.3 mm
01:20 PM 88.9°F31.6°C 69.6°F20.9°C 53% 6.9 mph SE11.1 kmh SE 12.1 mph19.5 kmh 29.92 in1013.2 mb 0.00 in0.0 mm 0.00 in0.0 mm 0.01 in0.3 mm
01:25 PM 89.4°F31.9°C 69.5°F20.8°C 52% 6.0 mph SE9.7 kmh SE 12.1 mph19.5 kmh 29.92 in1013.2 mb 0.00 in0.0 mm 0.00 in0.0 mm 0.01 in0.3 mm
01:30 PM 89.2°F31.8°C 68.8°F20.4°C 51% 5.4 mph SE8.7 kmh SE 12.1 mph19.5 kmh 29.92 in1013.2 mb 0.00 in0.0 mm 0.00 in0.0 mm 0.01 in0.3 mm
01:35 PM 89.6°F32.0°C 69.1°F20.6°C 51% 6.0 mph SE9.7 kmh SE 12.1 mph19.5 kmh 29.92 in1013.2 mb 0.00 in0.0 mm 0.00 in0.0 mm 0.01 in0.3 mm
01:40 PM 89.8°F32.1°C 68.1°F20.1°C 49% 9.2 mph SE14.8 kmh SE 13.0 mph20.9 kmh 29.92 in1013.2 mb 0.00 in0.0 mm 0.00 in0.0 mm 0.01 in0.3 mm
01:45 PM 89.4°F31.9°C 68.4°F20.2°C 50% 6.0 mph SE9.7 kmh SE 13.0 mph20.9 kmh 29.92 in1013.2 mb 0.00 in0.0 mm 0.00 in0.0 mm 0.01 in0.3 mm
01:50 PM 89.8°F32.1°C 68.7°F20.4°C 50% 5.4 mph SE8.7 kmh SE 13.0 mph20.9 kmh 29.92 in1013.2 mb 0.00 in0.0 mm 0.00 in0.0 mm 0.01 in0.3 mm
01:55 PM 90.1°F32.3°C 67.9°F19.9°C 48% 5.4 mph SE8.7 kmh SE 9.8 mph15.8 kmh 29.92 in1013.2 mb 0.00 in0.0 mm 0.00 in0.0 mm 0.01 in0.3 mm
02:00 PM 89.8°F32.1°C 68.1°F20.1°C 49% 6.9 mph SE11.1 kmh SE 12.1 mph19.5 kmh 29.92 in1013.2 mb 0.00 in0.0 mm 0.00 in0.0 mm 0.01 in0.3 mm
02:05 PM 90.3°F32.4°C 69.2°F20.7°C 50% 11.4 mph SE18.3 kmh SE 16.8 mph27.0 kmh 29.92 in1013.2 mb 0.00 in0.0 mm 0.00 in0.0 mm 0.01 in0.3 mm
02:10 PM 90.5°F32.5°C 70.0°F21.1°C 51% 4.5 mph SE7.2 kmh SE 16.8 mph27.0 kmh 29.92 in1013.2 mb 0.00 in0.0 mm 0.00 in0.0 mm 0.01 in0.3 mm
02:15 PM 90.0°F32.2°C 69.5°F20.8°C 51% 6.9 mph SE11.1 kmh SE 16.8 mph27.0 kmh 29.92 in1013.2 mb 0.00 in0.0 mm 0.00 in0.0 mm 0.01 in0.3 mm
02:20 PM 90.3°F32.4°C 69.8°F21.0°C 51% 5.4 mph SE8.7 kmh SE 13.0 mph20.9 kmh 29.92 in1013.2 mb 0.00 in0.0 mm 0.00 in0.0 mm 0.01 in0.3 mm
02:25 PM 89.6°F32.0°C 68.0°F20.0°C 49% 4.5 mph SE7.2 kmh SE 13.0 mph20.9 kmh 29.92 in1013.2 mb 0.00 in0.0 mm 0.00 in0.0 mm 0.01 in0.3 mm
02:30 PM 90.0°F32.2°C 67.7°F19.8°C 48% 3.8 mph SE6.1 kmh SE 13.0 mph20.9 kmh 29.92 in1013.2 mb 0.00 in0.0 mm 0.00 in0.0 mm 0.01 in0.3 mm
02:35 PM 90.1°F32.3°C 67.9°F19.9°C 48% 6.0 mph SE9.7 kmh SE 11.4 mph18.3 kmh 29.92 in1013.2 mb 0.00 in0.0 mm 0.00 in0.0 mm 0.01 in0.3 mm
02:40 PM 89.8°F32.1°C 67.5°F19.7°C 48% 8.3 mph SE13.4 kmh SE 13.0 mph20.9 kmh 29.92 in1013.2 mb 0.00 in0.0 mm 0.00 in0.0 mm 0.01 in0.3 mm
02:45 PM 90.1°F32.3°C 68.5°F20.3°C 49% 3.8 mph SE6.1 kmh SE 13.0 mph20.9 kmh 29.92 in1013.2 mb 0.00 in0.0 mm 0.00 in0.0 mm 0.01 in0.3 mm
02:50 PM 90.5°F32.5°C 68.2°F20.1°C 48% 6.9 mph SE11.1 kmh SE 13.0 mph20.9 kmh 29.92 in1013.2 mb 0.00 in0.0 mm 0.00 in0.0 mm 0.01 in0.3 mm
02:55 PM 90.1°F32.3°C 67.3°F19.6°C 47% 4.5 mph SE7.2 kmh SE 12.1 mph19.5 kmh 29.92 in1013.2 mb 0.00 in0.0 mm 0.00 in0.0 mm 0.01 in0.3 mm
03:00 PM 90.3°F32.4°C 68.6°F20.3°C 49% 3.1 mph SE5.0 kmh SE 10.7 mph17.2 kmh 29.92 in1013.2 mb 0.00 in0.0 mm 0.00 in0.0 mm 0.01 in0.3 mm
03:05 PM 90.1°F32.3°C 68.5°F20.3°C 49% 5.4 mph SE8.7 kmh SE 9.8 mph15.8 kmh 29.92 in1013.2 mb 0.00 in0.0 mm 0.00 in0.0 mm 0.01 in0.3 mm
03:10 PM 90.9°F32.7°C 69.7°F20.9°C 50% 5.4 mph SE8.7 kmh SE 9.8 mph15.8 kmh 29.92 in1013.2 mb 0.00 in0.0 mm 0.00 in0.0 mm 0.01 in0.3 mm
03:15 PM 91.2°F32.9°C 69.5°F20.8°C 49% 6.9 mph SE11.1 kmh SE 9.2 mph14.8 kmh 29.92 in1013.2 mb 0.00 in0.0 mm 0.00 in0.0 mm 0.01 in0.3 mm
03:20 PM 90.9°F32.7°C 68.5°F20.3°C 48% 5.4 mph SE8.7 kmh SE 10.7 mph17.2 kmh 29.92 in1013.2 mb 0.00 in0.0 mm 0.00 in0.0 mm 0.01 in0.3 mm
03:25 PM 90.5°F32.5°C 68.8°F20.4°C 49% 2.2 mph SE3.5 kmh SE 10.7 mph17.2 kmh 29.92 in1013.2 mb 0.00 in0.0 mm 0.00 in0.0 mm 0.01 in0.3 mm
03:30 PM 89.8°F32.1°C 67.5°F19.7°C 48% 6.9 mph SE11.1 kmh SE 10.7 mph17.2 kmh 29.92 in1013.2 mb 0.00 in0.0 mm 0.00 in0.0 mm 0.01 in0.3 mm
03:35 PM 89.2°F31.8°C 68.8°F20.4°C 51% 4.5 mph SE7.2 kmh SE 11.4 mph18.3 kmh 29.92 in1013.2 mb 0.00 in0.0 mm 0.00 in0.0 mm 0.01 in0.3 mm
03:40 PM 89.4°F31.9°C 69.0°F20.6°C 51% 3.1 mph SE5.0 kmh SE 11.4 mph18.3 kmh 29.92 in1013.2 mb 0.00 in0.0 mm 0.00 in0.0 mm 0.01 in0.3 mm
03:45 PM 89.1°F31.7°C 68.6°F20.3°C 51% 3.8 mph SE6.1 kmh SE 11.4 mph18.3 kmh 29.92 in1013.2 mb 0.00 in0.0 mm 0.00 in0.0 mm 0.01 in0.3 mm
03:50 PM 89.1°F31.7°C 68.6°F20.3°C 51% 5.4 mph SE8.7 kmh SE 11.4 mph18.3 kmh 29.92 in1013.2 mb 0.00 in0.0 mm 0.00 in0.0 mm 0.01 in0.3 mm
03:55 PM 88.7°F31.5°C 68.9°F20.5°C 52% 5.4 mph SE8.7 kmh SE 11.4 mph18.3 kmh 29.92 in1013.2 mb 0.00 in0.0 mm 0.00 in0.0 mm 0.01 in0.3 mm
04:00 PM 89.6°F32.0°C 68.0°F20.0°C 49% 6.0 mph SE9.7 kmh SE 11.4 mph18.3 kmh 29.92 in1013.2 mb 0.00 in0.0 mm 0.00 in0.0 mm 0.01 in0.3 mm
04:05 PM 90.5°F32.5°C 68.2°F20.1°C 48% 6.9 mph SE11.1 kmh SE 11.4 mph18.3 kmh 29.92 in1013.2 mb 0.00 in0.0 mm 0.00 in0.0 mm 0.01 in0.3 mm
04:10 PM 90.7°F32.6°C 68.4°F20.2°C 48% 5.4 mph SE8.7 kmh SE 10.7 mph17.2 kmh 29.92 in1013.2 mb 0.00 in0.0 mm 0.00 in0.0 mm 0.01 in0.3 mm
04:15 PM 90.3°F32.4°C 66.8°F19.3°C 46% 5.4 mph SE8.7 kmh SE 11.4 mph18.3 kmh 29.92 in1013.2 mb 0.00 in0.0 mm 0.00 in0.0 mm 0.01 in0.3 mm
04:20 PM 90.7°F32.6°C 67.1°F19.5°C 46% 5.4 mph SE8.7 kmh SE 11.4 mph18.3 kmh 29.92 in1013.2 mb 0.00 in0.0 mm 0.00 in0.0 mm 0.01 in0.3 mm
04:25 PM 90.5°F32.5°C 65.0°F18.3°C 43% 5.4 mph SE8.7 kmh SE 12.1 mph19.5 kmh 29.92 in1013.2 mb 0.00 in0.0 mm 0.00 in0.0 mm 0.01 in0.3 mm
04:30 PM 90.7°F32.6°C 65.2°F18.4°C 43% 6.0 mph SE9.7 kmh SE 13.6 mph21.9 kmh 29.92 in1013.2 mb 0.00 in0.0 mm 0.00 in0.0 mm 0.01 in0.3 mm
04:35 PM 91.2°F32.9°C 65.7°F18.7°C 43% 9.2 mph SE14.8 kmh SE 13.6 mph21.9 kmh 29.92 in1013.2 mb 0.00 in0.0 mm 0.00 in0.0 mm 0.01 in0.3 mm
04:40 PM 91.0°F32.8°C 64.8°F18.2°C 42% 9.8 mph SE15.8 kmh SE 13.6 mph21.9 kmh 29.92 in1013.2 mb 0.00 in0.0 mm 0.00 in0.0 mm 0.01 in0.3 mm
04:45 PM 90.3°F32.4°C 63.5°F17.5°C 41% 8.3 mph SE13.4 kmh SE 13.6 mph21.9 kmh 29.92 in1013.2 mb 0.00 in0.0 mm 0.00 in0.0 mm 0.01 in0.3 mm
04:50 PM 90.0°F32.2°C 63.9°F17.7°C 42% 6.9 mph SE11.1 kmh SE 13.6 mph21.9 kmh 29.92 in1013.2 mb 0.00 in0.0 mm 0.00 in0.0 mm 0.01 in0.3 mm
04:55 PM 89.6°F32.0°C 64.2°F17.9°C 43% 9.2 mph SE14.8 kmh SE 14.5 mph23.3 kmh 29.92 in1013.2 mb 0.00 in0.0 mm 0.00 in0.0 mm 0.01 in0.3 mm
05:00 PM 89.2°F31.8°C 64.5°F18.1°C 44% 9.2 mph SE14.8 kmh SE 14.5 mph23.3 kmh 29.92 in1013.2 mb 0.00 in0.0 mm 0.00 in0.0 mm 0.01 in0.3 mm
05:05 PM 89.2°F31.8°C 64.5°F18.1°C 44% 5.4 mph SE8.7 kmh SE 13.6 mph21.9 kmh 29.92 in1013.2 mb 0.00 in0.0 mm 0.00 in0.0 mm 0.01 in0.3 mm
05:10 PM 88.9°F31.6°C 64.9°F18.3°C 45% 7.6 mph SE12.2 kmh SE 13.6 mph21.9 kmh 29.92 in1013.2 mb 0.00 in0.0 mm 0.00 in0.0 mm 0.01 in0.3 mm
05:15 PM 88.9°F31.6°C 65.5°F18.6°C 46% 5.4 mph SE8.7 kmh SE 11.4 mph18.3 kmh 29.92 in1013.2 mb 0.00 in0.0 mm 0.00 in0.0 mm 0.01 in0.3 mm
05:20 PM 88.7°F31.5°C 64.7°F18.2°C 45% 9.2 mph SE14.8 kmh SE 13.0 mph20.9 kmh 29.92 in1013.2 mb 0.00 in0.0 mm 0.00 in0.0 mm 0.01 in0.3 mm
05:25 PM 88.2°F31.2°C 64.2°F17.9°C 45% 4.5 mph SE7.2 kmh SE 13.0 mph20.9 kmh 29.92 in1013.2 mb 0.00 in0.0 mm 0.00 in0.0 mm 0.01 in0.3 mm
05:30 PM 88.2°F31.2°C 64.8°F18.2°C 46% 5.4 mph SE8.7 kmh SE 13.0 mph20.9 kmh 29.92 in1013.2 mb 0.00 in0.0 mm 0.00 in0.0 mm 0.01 in0.3 mm
05:35 PM 87.8°F31.0°C 65.1°F18.4°C 47% 4.5 mph SE7.2 kmh SE 10.7 mph17.2 kmh 29.92 in1013.2 mb 0.00 in0.0 mm 0.00 in0.0 mm 0.01 in0.3 mm
05:40 PM 87.6°F30.9°C 66.2°F19.0°C 49% 4.5 mph SE7.2 kmh SE 10.7 mph17.2 kmh 29.92 in1013.2 mb 0.00 in0.0 mm 0.00 in0.0 mm 0.01 in0.3 mm
05:45 PM 87.6°F30.9°C 66.7°F19.3°C 50% 3.1 mph SE5.0 kmh SE 9.8 mph15.8 kmh 29.92 in1013.2 mb 0.00 in0.0 mm 0.00 in0.0 mm 0.01 in0.3 mm
05:50 PM 87.8°F31.0°C 66.3°F19.1°C 49% 4.5 mph SE7.2 kmh SE 6.0 mph9.7 kmh 29.92 in1013.2 mb 0.00 in0.0 mm 0.00 in0.0 mm 0.01 in0.3 mm
05:55 PM 87.6°F30.9°C 67.3°F19.6°C 51% 6.9 mph SE11.1 kmh SE 8.3 mph13.4 kmh 29.92 in1013.2 mb 0.00 in0.0 mm 0.00 in0.0 mm 0.01 in0.3 mm
06:00 PM 87.3°F30.7°C 67.0°F19.4°C 51% 3.1 mph SE5.0 kmh SE 8.3 mph13.4 kmh 29.92 in1013.2 mb 0.00 in0.0 mm 0.00 in0.0 mm 0.01 in0.3 mm
06:05 PM 87.1°F30.6°C 67.4°F19.7°C 52% 1.6 mph SE2.6 kmh SE 9.2 mph14.8 kmh 29.92 in1013.2 mb 0.00 in0.0 mm 0.00 in0.0 mm 0.01 in0.3 mm
06:10 PM 87.1°F30.6°C 67.9°F19.9°C 53% 5.4 mph SE8.7 kmh SE 9.2 mph14.8 kmh 29.92 in1013.2 mb 0.00 in0.0 mm 0.00 in0.0 mm 0.01 in0.3 mm
06:15 PM 86.9°F30.5°C 67.8°F19.9°C 53% 5.4 mph SE8.7 kmh SE 6.9 mph11.1 kmh 29.92 in1013.2 mb 0.00 in0.0 mm 0.00 in0.0 mm 0.01 in0.3 mm
06:20 PM 86.7°F30.4°C 68.1°F20.1°C 54% 2.2 mph SE3.5 kmh SE 6.9 mph11.1 kmh 29.92 in1013.2 mb 0.00 in0.0 mm 0.00 in0.0 mm 0.01 in0.3 mm
06:25 PM 86.5°F30.3°C 68.0°F20.0°C 54% 2.2 mph SE3.5 kmh SE 7.6 mph12.2 kmh 29.92 in1013.2 mb 0.00 in0.0 mm 0.00 in0.0 mm 0.01 in0.3 mm
06:30 PM 86.4°F30.2°C 68.3°F20.2°C 55% 3.1 mph SE5.0 kmh SE 7.6 mph12.2 kmh 29.92 in1013.2 mb 0.00 in0.0 mm 0.00 in0.0 mm 0.01 in0.3 mm
06:35 PM 86.4°F30.2°C 68.9°F20.5°C 56% 0.7 mph SE1.1 kmh SE 5.4 mph8.7 kmh 29.92 in1013.2 mb 0.00 in0.0 mm 0.00 in0.0 mm 0.01 in0.3 mm
06:40 PM 86.2°F30.1°C 69.2°F20.7°C 57% 1.6 mph SE2.6 kmh SE 5.4 mph8.7 kmh 29.92 in1013.2 mb 0.00 in0.0 mm 0.00 in0.0 mm 0.01 in0.3 mm
06:45 PM 86.0°F30.0°C 69.1°F20.6°C 57% 3.1 mph SE5.0 kmh SE 4.5 mph7.2 kmh 29.92 in1013.2 mb 0.00 in0.0 mm 0.00 in0.0 mm 0.01 in0.3 mm
06:50 PM 86.0°F30.0°C 69.6°F20.9°C 58% 3.1 mph SE5.0 kmh SE 5.4 mph8.7 kmh 29.92 in1013.2 mb 0.00 in0.0 mm 0.00 in0.0 mm 0.01 in0.3 mm
06:55 PM 85.6°F29.8°C 69.7°F20.9°C 59% 3.1 mph SE5.0 kmh SE 5.4 mph8.7 kmh 29.92 in1013.2 mb 0.00 in0.0 mm 0.00 in0.0 mm 0.01 in0.3 mm
07:00 PM 85.5°F29.7°C 70.1°F21.2°C 60% 3.8 mph SE6.1 kmh SE 6.0 mph9.7 kmh 29.92 in1013.2 mb 0.00 in0.0 mm 0.00 in0.0 mm 0.01 in0.3 mm
07:05 PM 85.3°F29.6°C 69.9°F21.1°C 60% 2.2 mph SE3.5 kmh SE 6.0 mph9.7 kmh 29.92 in1013.2 mb 0.00 in0.0 mm 0.00 in0.0 mm 0.01 in0.3 mm
07:10 PM 85.1°F29.5°C 70.2°F21.2°C 61% 3.1 mph SE5.0 kmh SE 5.4 mph8.7 kmh 29.92 in1013.2 mb 0.00 in0.0 mm 0.00 in0.0 mm 0.01 in0.3 mm
07:15 PM 84.9°F29.4°C 70.0°F21.1°C 61% 3.8 mph SE6.1 kmh SE 6.9 mph11.1 kmh 29.92 in1013.2 mb 0.00 in0.0 mm 0.00 in0.0 mm 0.01 in0.3 mm
07:20 PM 84.6°F29.2°C 69.7°F20.9°C 61% 3.8 mph SE6.1 kmh SE 6.9 mph11.1 kmh 29.92 in1013.2 mb 0.00 in0.0 mm 0.00 in0.0 mm 0.01 in0.3 mm
07:25 PM 84.4°F29.1°C 70.0°F21.1°C 62% 1.6 mph SE2.6 kmh SE 6.9 mph11.1 kmh 29.92 in1013.2 mb 0.00 in0.0 mm 0.00 in0.0 mm 0.01 in0.3 mm
07:30 PM 84.2°F29.0°C 69.3°F20.7°C 61% 3.1 mph SE5.0 kmh SE 6.0 mph9.7 kmh 29.92 in1013.2 mb 0.00 in0.0 mm 0.00 in0.0 mm 0.01 in0.3 mm
07:35 PM 84.0°F28.9°C 70.1°F21.2°C 63% 1.6 mph SE2.6 kmh SE 6.0 mph9.7 kmh 29.92 in1013.2 mb 0.00 in0.0 mm 0.00 in0.0 mm 0.01 in0.3 mm
07:40 PM 83.7°F28.7°C 69.8°F21.0°C 63% 1.6 mph SE2.6 kmh SE 4.5 mph7.2 kmh 29.92 in1013.2 mb 0.00 in0.0 mm 0.00 in0.0 mm 0.01 in0.3 mm
07:45 PM 83.5°F28.6°C 70.1°F21.2°C 64% 2.2 mph SE3.5 kmh SE 3.8 mph6.1 kmh 29.92 in1013.2 mb 0.00 in0.0 mm 0.00 in0.0 mm 0.01 in0.3 mm
07:50 PM 83.1°F28.4°C 69.7°F20.9°C 64% 1.6 mph SE2.6 kmh SE 4.5 mph7.2 kmh 29.92 in1013.2 mb 0.00 in0.0 mm 0.00 in0.0 mm 0.01 in0.3 mm
07:55 PM 82.8°F28.2°C 69.8°F21.0°C 65% Calm Calm 4.5 mph7.2 kmh 29.92 in1013.2 mb 0.00 in0.0 mm 0.00 in0.0 mm 0.01 in0.3 mm
08:00 PM 82.4°F28.0°C 69.5°F20.8°C 65% Calm Calm 3.8 mph6.1 kmh 29.92 in1013.2 mb 0.00 in0.0 mm 0.00 in0.0 mm 0.01 in0.3 mm
08:05 PM 82.4°F28.0°C 69.5°F20.8°C 65% Calm Calm -- 29.92 in1013.2 mb 0.00 in0.0 mm 0.00 in0.0 mm 0.01 in0.3 mm
08:10 PM 82.4°F28.0°C 70.0°F21.1°C 66% Calm Calm -- 29.92 in1013.2 mb 0.00 in0.0 mm 0.00 in0.0 mm 0.01 in0.3 mm
08:15 PM 82.0°F27.8°C 70.5°F21.4°C 68% 2.2 mph SE3.5 kmh SE 4.5 mph7.2 kmh 29.92 in1013.2 mb 0.00 in0.0 mm 0.00 in0.0 mm 0.01 in0.3 mm
08:20 PM 81.9°F27.7°C 70.7°F21.5°C 69% Calm Calm 4.5 mph7.2 kmh 29.92 in1013.2 mb 0.00 in0.0 mm 0.00 in0.0 mm 0.01 in0.3 mm
08:25 PM 81.9°F27.7°C 70.7°F21.5°C 69% Calm Calm 3.8 mph6.1 kmh 29.92 in1013.2 mb 0.00 in0.0 mm 0.00 in0.0 mm 0.01 in0.3 mm
08:30 PM 81.5°F27.5°C 70.8°F21.6°C 70% 2.2 mph SE3.5 kmh SE 4.5 mph7.2 kmh 29.92 in1013.2 mb 0.00 in0.0 mm 0.00 in0.0 mm 0.01 in0.3 mm
08:35 PM 81.5°F27.5°C 71.2°F21.8°C 71% 1.6 mph SE2.6 kmh SE 4.5 mph7.2 kmh 29.92 in1013.2 mb 0.00 in0.0 mm 0.00 in0.0 mm 0.01 in0.3 mm
08:40 PM 81.3°F27.4°C 71.1°F21.7°C 71% Calm Calm 4.5 mph7.2 kmh 29.92 in1013.2 mb 0.00 in0.0 mm 0.00 in0.0 mm 0.01 in0.3 mm
08:45 PM 81.1°F27.3°C 70.9°F21.6°C 71% Calm Calm 3.1 mph5.0 kmh 29.92 in1013.2 mb 0.00 in0.0 mm 0.00 in0.0 mm 0.01 in0.3 mm
08:50 PM 81.1°F27.3°C 71.3°F21.8°C 72% 2.2 mph SE3.5 kmh SE 5.4 mph8.7 kmh 29.92 in1013.2 mb 0.00 in0.0 mm 0.00 in0.0 mm 0.01 in0.3 mm
08:55 PM 81.0°F27.2°C 71.5°F21.9°C 73% 1.6 mph SE2.6 kmh SE 5.4 mph8.7 kmh 29.92 in1013.2 mb 0.00 in0.0 mm 0.00 in0.0 mm 0.01 in0.3 mm
09:00 PM 80.8°F27.1°C 71.4°F21.9°C 73% Calm Calm 4.5 mph7.2 kmh 29.92 in1013.2 mb 0.00 in0.0 mm 0.00 in0.0 mm 0.01 in0.3 mm
09:05 PM 80.6°F27.0°C 71.2°F21.8°C 73% Calm Calm 3.1 mph5.0 kmh 29.92 in1013.2 mb 0.00 in0.0 mm 0.00 in0.0 mm 0.01 in0.3 mm
09:10 PM 80.6°F27.0°C 71.2°F21.8°C 73% Calm Calm 0.7 mph1.1 kmh 29.92 in1013.2 mb 0.00 in0.0 mm 0.00 in0.0 mm 0.01 in0.3 mm
09:15 PM 80.4°F26.9°C 71.8°F22.1°C 75% Calm Calm 3.1 mph5.0 kmh 29.92 in1013.2 mb 0.00 in0.0 mm 0.00 in0.0 mm 0.01 in0.3 mm
09:20 PM 80.2°F26.8°C 71.6°F22.0°C 75% Calm Calm 3.1 mph5.0 kmh 29.92 in1013.2 mb 0.00 in0.0 mm 0.00 in0.0 mm 0.01 in0.3 mm
09:25 PM 80.1°F26.7°C 71.5°F21.9°C 75% Calm Calm 3.1 mph5.0 kmh 29.92 in1013.2 mb 0.00 in0.0 mm 0.00 in0.0 mm 0.01 in0.3 mm
09:30 PM 79.9°F26.6°C 71.7°F22.1°C 76% Calm Calm 1.6 mph2.6 kmh 29.92 in1013.2 mb 0.00 in0.0 mm 0.00 in0.0 mm 0.01 in0.3 mm
09:35 PM 79.7°F26.5°C 71.9°F22.2°C 77% Calm Calm 0.7 mph1.1 kmh 29.92 in1013.2 mb 0.00 in0.0 mm 0.00 in0.0 mm 0.01 in0.3 mm
09:40 PM 79.3°F26.3°C 72.3°F22.4°C 79% Calm Calm 0.7 mph1.1 kmh 29.92 in1013.2 mb 0.00 in0.0 mm 0.00 in0.0 mm 0.01 in0.3 mm
09:45 PM 79.0°F26.1°C 72.0°F22.2°C 79% Calm Calm -- 29.92 in1013.2 mb 0.00 in0.0 mm 0.00 in0.0 mm 0.01 in0.3 mm
09:50 PM 78.8°F26.0°C 71.8°F22.1°C 79% Calm Calm -- 29.92 in1013.2 mb 0.00 in0.0 mm 0.00 in0.0 mm 0.01 in0.3 mm
09:55 PM 78.8°F26.0°C 71.8°F22.1°C 79% Calm Calm 0.7 mph1.1 kmh 29.92 in1013.2 mb 0.00 in0.0 mm 0.00 in0.0 mm 0.01 in0.3 mm
10:00 PM 78.8°F26.0°C 72.2°F22.3°C 80% Calm Calm 0.7 mph1.1 kmh 29.92 in1013.2 mb 0.00 in0.0 mm 0.00 in0.0 mm 0.01 in0.3 mm
10:05 PM 78.6°F25.9°C 72.4°F22.4°C 81% Calm Calm 0.7 mph1.1 kmh 29.92 in1013.2 mb 0.00 in0.0 mm 0.00 in0.0 mm 0.01 in0.3 mm
10:10 PM 78.4°F25.8°C 72.5°F22.5°C 82% Calm Calm 0.7 mph1.1 kmh 29.92 in1013.2 mb 0.00 in0.0 mm 0.00 in0.0 mm 0.01 in0.3 mm
10:15 PM 78.3°F25.7°C 72.4°F22.4°C 82% Calm Calm 0.7 mph1.1 kmh 29.92 in1013.2 mb 0.00 in0.0 mm 0.00 in0.0 mm 0.01 in0.3 mm
10:20 PM 78.1°F25.6°C 72.2°F22.3°C 82% Calm Calm 0.7 mph1.1 kmh 29.92 in1013.2 mb 0.00 in0.0 mm 0.00 in0.0 mm 0.01 in0.3 mm
10:25 PM 78.1°F25.6°C 72.2°F22.3°C 82% Calm Calm 0.7 mph1.1 kmh 29.92 in1013.2 mb 0.00 in0.0 mm 0.00 in0.0 mm 0.01 in0.3 mm
10:30 PM 78.1°F25.6°C 72.2°F22.3°C 82% Calm Calm 0.7 mph1.1 kmh 29.92 in1013.2 mb 0.00 in0.0 mm 0.00 in0.0 mm 0.01 in0.3 mm
10:35 PM 77.7°F25.4°C 71.8°F22.1°C 82% Calm Calm -- 29.92 in1013.2 mb 0.00 in0.0 mm 0.00 in0.0 mm 0.01 in0.3 mm
10:40 PM 77.4°F25.2°C 71.8°F22.1°C 83% Calm Calm -- 29.92 in1013.2 mb 0.00 in0.0 mm 0.00 in0.0 mm 0.01 in0.3 mm
10:45 PM 77.4°F25.2°C 71.8°F22.1°C 83% Calm Calm -- 29.92 in1013.2 mb 0.00 in0.0 mm 0.00 in0.0 mm 0.01 in0.3 mm
10:50 PM 77.4°F25.2°C 71.8°F22.1°C 83% Calm Calm -- 29.92 in1013.2 mb 0.00 in0.0 mm 0.00 in0.0 mm 0.01 in0.3 mm
10:55 PM 77.2°F25.1°C 72.0°F22.2°C 84% Calm Calm -- 29.92 in1013.2 mb 0.00 in0.0 mm 0.00 in0.0 mm 0.01 in0.3 mm
11:00 PM 77.0°F25.0°C 72.2°F22.3°C 85% Calm Calm 0.7 mph1.1 kmh 29.92 in1013.2 mb 0.00 in0.0 mm 0.00 in0.0 mm 0.01 in0.3 mm
11:05 PM 77.0°F25.0°C 72.2°F22.3°C 85% Calm Calm 0.7 mph1.1 kmh 29.92 in1013.2 mb 0.00 in0.0 mm 0.00 in0.0 mm 0.01 in0.3 mm
11:10 PM 76.8°F24.9°C 72.4°F22.4°C 86% Calm Calm -- 29.92 in1013.2 mb 0.00 in0.0 mm 0.00 in0.0 mm 0.01 in0.3 mm
11:15 PM 76.6°F24.8°C 72.2°F22.3°C 86% Calm Calm -- 29.92 in1013.2 mb 0.00 in0.0 mm 0.00 in0.0 mm 0.01 in0.3 mm
11:20 PM 76.5°F24.7°C 72.4°F22.4°C 87% Calm Calm -- 29.92 in1013.2 mb 0.00 in0.0 mm 0.00 in0.0 mm 0.01 in0.3 mm
11:25 PM 76.3°F24.6°C 72.2°F22.3°C 87% Calm Calm -- 29.92 in1013.2 mb 0.00 in0.0 mm 0.00 in0.0 mm 0.01 in0.3 mm
11:30 PM 76.1°F24.5°C 72.0°F22.2°C 87% Calm Calm -- 29.92 in1013.2 mb 0.00 in0.0 mm 0.00 in0.0 mm 0.01 in0.3 mm
11:35 PM 76.1°F24.5°C 72.3°F22.4°C 88% Calm Calm -- 29.92 in1013.2 mb 0.00 in0.0 mm 0.00 in0.0 mm 0.01 in0.3 mm
11:40 PM 76.3°F24.6°C 72.5°F22.5°C 88% Calm Calm -- 29.92 in1013.2 mb 0.00 in0.0 mm 0.00 in0.0 mm 0.01 in0.3 mm
11:45 PM 76.1°F24.5°C 72.7°F22.6°C 89% Calm Calm -- 29.92 in1013.2 mb 0.00 in0.0 mm 0.00 in0.0 mm 0.01 in0.3 mm
11:50 PM 75.9°F24.4°C 72.5°F22.5°C 89% Calm Calm 0.7 mph1.1 kmh 29.92 in1013.2 mb 0.00 in0.0 mm 0.00 in0.0 mm 0.01 in0.3 mm
11:55 PM 75.6°F24.2°C 72.1°F22.3°C 89% Calm Calm 0.7 mph1.1 kmh 29.92 in1013.2 mb 0.00 in0.0 mm 0.00 in0.0 mm 0.01 in0.3 mm